TimeEST,TemperatureF,Dew PointF,Humidity,Sea Level PressureIn,VisibilityMPH,Wind Direction,Wind SpeedMPH,Gust SpeedMPH,PrecipitationIn,Events,Conditions,WindDirDegrees,DateUTC
12:13 AM,28.4,17.6,64,29.86,10.0,WNW,23.0,26.5,0.00,Snow,Light Snow,290,2012-11-25 05:13:00
12:56 AM,29.1,16.2,58,29.90,10.0,WNW,20.7,26.5,0.00,,Overcast,290,2012-11-25 05:56:00
1:56 AM,29.1,16.2,58,29.91,10.0,WNW,13.8,23.0,0.00,,Overcast,300,2012-11-25 06:56:00
2:56 AM,29.1,16.2,58,29.92,10.0,WNW,17.3,27.6,0.00,,Overcast,290,2012-11-25 07:56:00
3:56 AM,29.1,18.1,64,29.91,10.0,West,12.7,-,0.00,Snow,Light Snow,270,2012-11-25 08:56:00
4:56 AM,29.1,16.2,58,29.91,10.0,WNW,21.9,27.6,0.00,,Overcast,300,2012-11-25 09:56:00
5:56 AM,29.1,16.2,58,29.91,10.0,West,15.0,23.0,N/A,,Overcast,280,2012-11-25 10:56:00
6:21 AM,28.4,15.8,59,29.87,10.0,WNW,15.0,-,N/A,,Overcast,290,2012-11-25 11:21:00
6:56 AM,29.1,16.2,58,29.91,10.0,West,13.8,-,N/A,,Overcast,280,2012-11-25 11:56:00
7:56 AM,29.1,17.1,61,29.92,10.0,West,10.4,-,N/A,,Overcast,270,2012-11-25 12:56:00
8:56 AM,29.1,18.1,64,29.92,10.0,West,11.5,-,N/A,,Overcast,270,2012-11-25 13:56:00
9:56 AM,29.1,19.0,66,29.92,10.0,West,12.7,-,0.00,,Overcast,260,2012-11-25 14:56:00
10:17 AM,30.2,19.4,64,29.87,6.0,West,11.5,-,0.00,Snow,Light Snow,260,2012-11-25 15:17:00
10:56 AM,29.1,23.0,78,29.92,5.0,West,13.8,-,0.00,Snow,Light Snow,270,2012-11-25 15:56:00
11:56 AM,30.0,23.0,75,29.88,5.0,West,3.5,-,0.00,Snow,Light Snow,270,2012-11-25 16:56:00
12:56 PM,29.1,25.2,85,29.87,3.0,SW,5.8,-,0.00,Snow,Light Snow,230,2012-11-25 17:56:00
1:56 PM,31.1,27.1,85,29.85,7.0,WSW,4.6,-,0.00,,Mostly Cloudy,240,2012-11-25 18:56:00
2:56 PM,32.0,23.0,69,29.84,10.0,West,9.2,-,N/A,,Overcast,260,2012-11-25 19:56:00
3:56 PM,32.0,23.0,69,29.84,10.0,WSW,9.2,-,N/A,,Overcast,240,2012-11-25 20:56:00
4:56 PM,31.1,22.1,69,29.86,10.0,WSW,9.2,-,N/A,,Overcast,240,2012-11-25 21:56:00
5:56 PM,31.1,23.0,72,29.88,10.0,WSW,8.1,-,0.00,,Overcast,240,2012-11-25 22:56:00
6:56 PM,31.1,23.0,72,29.90,10.0,SW,6.9,-,0.00,,Overcast,230,2012-11-25 23:56:00
7:56 PM,31.1,23.0,72,29.91,10.0,SW,4.6,-,0.00,,Overcast,220,2012-11-26 00:56:00
7:59 PM,30.2,23.0,75,29.87,10.0,WSW,5.8,-,0.00,,Overcast,250,2012-11-26 00:59:00
8:56 PM,31.1,22.1,69,29.90,10.0,SW,4.6,-,0.00,,Overcast,230,2012-11-26 01:56:00
9:56 PM,31.1,23.0,72,29.90,10.0,SW,8.1,-,0.00,,Overcast,220,2012-11-26 02:56:00
10:56 PM,31.1,24.1,75,29.91,10.0,SW,8.1,-,0.00,,Overcast,220,2012-11-26 03:56:00
11:56 PM,31.1,25.2,79,29.91,10.0,SW,4.6,-,0.00,,Overcast,230,2012-11-26 04:56:00